Aérodrome :
LOGIN :

S'inscrire | Disclaimer

   EN    FR    IT 

 










Légende :    VFR   VFR Marginal   IFR   IFR Intensif   IFR Très Intensif
Visi : 
Plafond : 
>= 8 km
>= 3000ft
5 à 8 km
1000 à 3000 ft
1500m à 5 km
500 à 1000 ft
800 à 1500m
200 à 500 ft
< 800m
< 200 ft
Symboles :   Orages  Brouillard  Fortes neiges  Fortes précipitations  Vent > 20 kt
SIGMETs :   Divers  Orages  Givrage  Turbulence  Onde Orograph.  Cendres Volcan.







- Altitude de l'aérodrome : 1058 ft
- Code IATA : SCN


EDDR - Saarbrücken

DERNIER METAR :
  • 231550Z 24024G35KT 9999 -RA FEW017 BKN025 08/05 Q1000 NOSIG

METARs EXPIRÉS :
  • 231520Z 25023G38KT 9999 -SHRA FEW025 BKN029 09/05 Q1000 NOSIG
  • 231450Z 24020G30KT 9999 FEW027 BKN030 09/04 Q1000 NOSIG
  • 231420Z 25019G31KT 220V280 9999 FEW019 BKN028 10/04 Q1000 NOSIG
  • 231350Z 26019KT 9999 BKN023 10/05 Q1001 TEMPO 24015G25KT
  • 231320Z 25019G33KT 9999 BKN025 BKN150 10/05 Q1001 NOSIG

TAF TAF EDDR
Valide du 23 à 12h jusqu'au 24 à 12h UTC


231100Z 2312/2412 24020G35KT 9999 SCT010 BKN020
TEMPO 2315/2401 25025G45KT SHRA BKN012 BKN020TCU
BECMG 2401/2403 26015G25KT
BECMG 2403/2406 26011KT
PROB40
TEMPO 2408/2412 27015G25KT 4000 SHRA BKN008 BKN015TCU
Pas de NOTAMs connus pour ce terrain.
1 SIGMET publié pour la FIR Langen (EDGG) :
 
Turbulence forte
EDGG SIGMET 1 VALID 231430/231830 EDZF
EDGG LANGEN FIR SEV TURB FCST NW OF LINE N4859 E00810 - N5013 E01016 SFC/FL050 MOV E 30KT NC=



MET'MAP, la Météo Aéronautique d'un coup d'oeil ! - Copyright ORBIFLY Décembre 2007 - Disclaimer

ORBIFLY MET'MAP TEAM :

Programmation & Développement : Alexandra Zaïnal
Conception & Développement : Baudouin d'Aumeries
Co-Programmation & Développement : Marc-Olivier Méhu
Soutien technique & logistique : Manuel Goepfert

Contact : metmap@orbifly.com




SOURCES & CREDITS :

   NOAA